sensor_id;sensor_type;location;lat;lon;timestamp;pressure;altitude;pressure_sealevel;temperature;humidity
65756;BME280;52489;47.502;18.940;2023-02-04T00:00:44;97814.69;;;2.30;94.72
65756;BME280;52489;47.502;18.940;2023-02-04T00:01:47;97808.75;;;2.30;94.70
65756;BME280;52489;47.502;18.940;2023-02-04T00:02:50;97804.91;;;2.32;94.45
65756;BME280;52489;47.502;18.940;2023-02-04T00:03:54;97800.91;;;2.52;93.54
65756;BME280;52489;47.502;18.940;2023-02-04T00:04:56;97809.19;;;2.48;93.54
65756;BME280;52489;47.502;18.940;2023-02-04T00:06:00;97804.44;;;2.40;93.64
65756;BME280;52489;47.502;18.940;2023-02-04T00:07:03;97802.16;;;2.44;93.55
65756;BME280;52489;47.502;18.940;2023-02-04T00:08:07;97801.16;;;2.50;93.23
65756;BME280;52489;47.502;18.940;2023-02-04T00:09:10;97794.94;;;2.46;93.72
65756;BME280;52489;47.502;18.940;2023-02-04T00:10:13;97790.00;;;2.44;93.43
65756;BME280;52489;47.502;18.940;2023-02-04T00:11:16;97791.53;;;2.40;93.93
65756;BME280;52489;47.502;18.940;2023-02-04T00:12:19;97805.50;;;2.44;93.57
65756;BME280;52489;47.502;18.940;2023-02-04T00:13:22;97795.94;;;2.45;93.64
65756;BME280;52489;47.502;18.940;2023-02-04T00:14:24;97794.59;;;2.37;93.95
65756;BME280;52489;47.502;18.940;2023-02-04T00:15:27;97807.00;;;2.35;94.06
65756;BME280;52489;47.502;18.940;2023-02-04T00:16:30;97800.47;;;2.27;94.72
65756;BME280;52489;47.502;18.940;2023-02-04T00:17:33;97807.44;;;2.27;94.96
65756;BME280;52489;47.502;18.940;2023-02-04T00:18:36;97800.47;;;2.27;95.00
65756;BME280;52489;47.502;18.940;2023-02-04T00:19:39;97806.22;;;2.35;94.72
65756;BME280;52489;47.502;18.940;2023-02-04T00:20:43;97809.81;;;2.34;94.78
65756;BME280;52489;47.502;18.940;2023-02-04T00:21:45;97811.38;;;2.35;94.74
65756;BME280;52489;47.502;18.940;2023-02-04T00:22:48;97806.72;;;2.32;94.90
65756;BME280;52489;47.502;18.940;2023-02-04T00:23:52;97807.22;;;2.34;94.84
65756;BME280;52489;47.502;18.940;2023-02-04T00:24:57;97809.84;;;2.39;94.73
65756;BME280;52489;47.502;18.940;2023-02-04T00:26:00;97812.38;;;2.34;94.72
65756;BME280;52489;47.502;18.940;2023-02-04T00:27:04;97817.66;;;2.44;94.42
65756;BME280;52489;47.502;18.940;2023-02-04T00:28:07;97811.63;;;2.33;94.76
65756;BME280;52489;47.502;18.940;2023-02-04T00:29:10;97812.13;;;2.30;95.03
65756;BME280;52489;47.502;18.940;2023-02-04T00:30:13;97808.69;;;2.24;95.53
65756;BME280;52489;47.502;18.940;2023-02-04T00:31:16;97820.19;;;2.39;94.61
65756;BME280;52489;47.502;18.940;2023-02-04T00:32:19;97818.38;;;2.39;94.23
65756;BME280;52489;47.502;18.940;2023-02-04T00:33:22;97820.16;;;2.34;94.88
65756;BME280;52489;47.502;18.940;2023-02-04T00:34:25;97819.38;;;2.33;94.79
65756;BME280;52489;47.502;18.940;2023-02-04T00:35:27;97818.72;;;2.48;94.06
65756;BME280;52489;47.502;18.940;2023-02-04T00:36:31;97820.78;;;2.46;94.24
65756;BME280;52489;47.502;18.940;2023-02-04T00:37:33;97813.84;;;2.52;93.70
65756;BME280;52489;47.502;18.940;2023-02-04T00:38:36;97807.38;;;2.54;93.24
65756;BME280;52489;47.502;18.940;2023-02-04T00:39:39;97808.69;;;2.52;93.36
65756;BME280;52489;47.502;18.940;2023-02-04T00:40:42;97817.41;;;2.45;93.95
65756;BME280;52489;47.502;18.940;2023-02-04T00:41:45;97809.12;;;2.43;93.89
65756;BME280;52489;47.502;18.940;2023-02-04T00:42:48;97814.28;;;2.43;94.16
65756;BME280;52489;47.502;18.940;2023-02-04T00:43:50;97811.53;;;2.55;93.00
65756;BME280;52489;47.502;18.940;2023-02-04T00:44:53;97820.31;;;2.54;92.97
65756;BME280;52489;47.502;18.940;2023-02-04T00:45:56;97823.44;;;2.56;92.84
65756;BME280;52489;47.502;18.940;2023-02-04T00:46:59;97823.44;;;2.56;92.79
65756;BME280;52489;47.502;18.940;2023-02-04T00:48:02;97822.63;;;2.50;93.03
65756;BME280;52489;47.502;18.940;2023-02-04T00:49:05;97806.87;;;2.52;93.28
65756;BME280;52489;47.502;18.940;2023-02-04T00:50:12;97809.19;;;2.54;93.15
65756;BME280;52489;47.502;18.940;2023-02-04T00:51:15;97814.41;;;2.59;92.59
65756;BME280;52489;47.502;18.940;2023-02-04T00:52:18;97811.53;;;2.55;92.76
65756;BME280;52489;47.502;18.940;2023-02-04T00:53:20;97809.69;;;2.50;92.88
65756;BME280;52489;47.502;18.940;2023-02-04T00:54:23;97808.88;;;2.45;93.42
65756;BME280;52489;47.502;18.940;2023-02-04T00:55:26;97812.28;;;2.50;93.33
65756;BME280;52489;47.502;18.940;2023-02-04T00:56:29;97804.50;;;2.50;93.13
65756;BME280;52489;47.502;18.940;2023-02-04T00:57:33;97812.53;;;2.49;93.18
65756;BME280;52489;47.502;18.940;2023-02-04T00:58:35;97807.59;;;2.47;93.21
65756;BME280;52489;47.502;18.940;2023-02-04T00:59:38;97804.97;;;2.42;93.58
65756;BME280;52489;47.502;18.940;2023-02-04T01:00:41;97805.94;;;2.36;93.72
65756;BME280;52489;47.502;18.940;2023-02-04T01:01:44;97805.06;;;2.53;93.29
65756;BME280;52489;47.502;18.940;2023-02-04T01:02:47;97799.59;;;2.49;93.17
65756;BME280;52489;47.502;18.940;2023-02-04T01:03:50;97797.84;;;2.55;92.81
65756;BME280;52489;47.502;18.940;2023-02-04T01:04:53;97798.06;;;2.53;92.66
65756;BME280;52489;47.502;18.940;2023-02-04T01:05:56;97799.75;;;2.74;91.66
65756;BME280;52489;47.502;18.940;2023-02-04T01:06:59;97787.00;;;2.58;91.92
65756;BME280;52489;47.502;18.940;2023-02-04T01:08:03;97790.34;;;2.58;92.03
65756;BME280;52489;47.502;18.940;2023-02-04T01:09:06;97795.81;;;2.62;92.11
65756;BME280;52489;47.502;18.940;2023-02-04T01:10:10;97784.16;;;2.59;91.90
65756;BME280;52489;47.502;18.940;2023-02-04T01:11:18;97788.00;;;2.52;92.13
65756;BME280;52489;47.502;18.940;2023-02-04T01:12:21;97789.00;;;2.50;92.74
65756;BME280;52489;47.502;18.940;2023-02-04T01:13:26;97783.31;;;2.48;92.88
65756;BME280;52489;47.502;18.940;2023-02-04T01:14:29;97788.78;;;2.57;92.50
65756;BME280;52489;47.502;18.940;2023-02-04T01:15:33;97785.50;;;2.67;91.79
65756;BME280;52489;47.502;18.940;2023-02-04T01:16:35;97781.06;;;2.62;91.46
65756;BME280;52489;47.502;18.940;2023-02-04T01:17:39;97785.25;;;2.68;91.50
65756;BME280;52489;47.502;18.940;2023-02-04T01:18:43;97773.84;;;2.64;91.70
65756;BME280;52489;47.502;18.940;2023-02-04T01:19:46;97782.63;;;2.63;91.49
65756;BME280;52489;47.502;18.940;2023-02-04T01:20:49;97774.63;;;2.65;91.65
65756;BME280;52489;47.502;18.940;2023-02-04T01:21:52;97773.56;;;2.66;91.79
65756;BME280;52489;47.502;18.940;2023-02-04T01:22:55;97774.94;;;2.73;91.23
65756;BME280;52489;47.502;18.940;2023-02-04T01:23:58;97779.56;;;2.71;91.22
65756;BME280;52489;47.502;18.940;2023-02-04T01:25:01;97765.63;;;2.72;91.45
65756;BME280;52489;47.502;18.940;2023-02-04T01:26:04;97769.44;;;2.65;91.69
65756;BME280;52489;47.502;18.940;2023-02-04T01:27:07;97768.41;;;2.66;91.67
65756;BME280;52489;47.502;18.940;2023-02-04T01:28:10;97772.31;;;2.68;91.67
65756;BME280;52489;47.502;18.940;2023-02-04T01:29:13;97765.31;;;2.64;92.02
65756;BME280;52489;47.502;18.940;2023-02-04T01:30:16;97766.84;;;2.65;91.84
65756;BME280;52489;47.502;18.940;2023-02-04T01:31:19;97762.22;;;2.67;91.73
65756;BME280;52489;47.502;18.940;2023-02-04T01:32:22;97760.16;;;2.69;91.69
65756;BME280;52489;47.502;18.940;2023-02-04T01:33:24;97761.41;;;2.61;92.08
65756;BME280;52489;47.502;18.940;2023-02-04T01:34:27;97759.06;;;2.60;92.19
65756;BME280;52489;47.502;18.940;2023-02-04T01:35:32;97760.19;;;2.74;91.76
65756;BME280;52489;47.502;18.940;2023-02-04T01:36:35;97750.34;;;2.71;91.49
65756;BME280;52489;47.502;18.940;2023-02-04T01:37:38;97756.06;;;2.73;91.54
65756;BME280;52489;47.502;18.940;2023-02-04T01:38:41;97747.44;;;2.62;91.75
65756;BME280;52489;47.502;18.940;2023-02-04T01:39:44;97744.13;;;2.67;91.98
65756;BME280;52489;47.502;18.940;2023-02-04T01:40:47;97749.03;;;2.63;92.00
65756;BME280;52489;47.502;18.940;2023-02-04T01:41:49;97752.37;;;2.64;91.76
65756;BME280;52489;47.502;18.940;2023-02-04T01:42:52;97744.84;;;2.62;91.86
65756;BME280;52489;47.502;18.940;2023-02-04T01:43:56;97748.75;;;2.65;91.79
65756;BME280;52489;47.502;18.940;2023-02-04T01:44:59;97749.78;;;2.64;91.70
65756;BME280;52489;47.502;18.940;2023-02-04T01:46:03;97745.94;;;2.66;91.72
65756;BME280;52489;47.502;18.940;2023-02-04T01:47:07;97746.44;;;2.63;91.40
65756;BME280;52489;47.502;18.940;2023-02-04T01:48:10;97749.31;;;2.72;91.02
65756;BME280;52489;47.502;18.940;2023-02-04T01:49:15;97753.44;;;2.68;91.16
65756;BME280;52489;47.502;18.940;2023-02-04T01:50:19;97741.03;;;2.70;91.29
65756;BME280;52489;47.502;18.940;2023-02-04T01:51:25;97750.59;;;2.74;90.78
65756;BME280;52489;47.502;18.940;2023-02-04T01:52:36;97756.28;;;2.71;91.03
65756;BME280;52489;47.502;18.940;2023-02-04T01:53:41;97751.13;;;2.71;90.83
65756;BME280;52489;47.502;18.940;2023-02-04T01:54:44;97752.69;;;2.72;90.87
65756;BME280;52489;47.502;18.940;2023-02-04T01:55:47;97753.19;;;2.74;90.49
65756;BME280;52489;47.502;18.940;2023-02-04T01:56:50;97754.97;;;2.69;90.75
65756;BME280;52489;47.502;18.940;2023-02-04T01:57:53;97756.56;;;2.70;90.73
65756;BME280;52489;47.502;18.940;2023-02-04T01:59:00;97747.78;;;2.76;90.62
65756;BME280;52489;47.502;18.940;2023-02-04T02:00:09;97753.25;;;2.85;89.91
65756;BME280;52489;47.502;18.940;2023-02-04T02:01:33;97755.09;;;2.84;89.94
65756;BME280;52489;47.502;18.940;2023-02-04T02:02:40;97757.09;;;2.77;90.06
65756;BME280;52489;47.502;18.940;2023-02-04T02:03:43;97746.47;;;2.73;89.87
65756;BME280;52489;47.502;18.940;2023-02-04T02:04:46;97758.47;;;2.90;89.07
65756;BME280;52489;47.502;18.940;2023-02-04T02:05:51;97738.75;;;2.84;89.61
65756;BME280;52489;47.502;18.940;2023-02-04T02:06:57;97750.97;;;2.93;89.13
65756;BME280;52489;47.502;18.940;2023-02-04T02:08:04;97751.53;;;3.01;88.74
65756;BME280;52489;47.502;18.940;2023-02-04T02:09:07;97756.66;;;2.90;88.88
65756;BME280;52489;47.502;18.940;2023-02-04T02:10:11;97760.28;;;2.94;88.92
65756;BME280;52489;47.502;18.940;2023-02-04T02:11:15;97757.94;;;2.88;89.03
65756;BME280;52489;47.502;18.940;2023-02-04T02:12:18;97762.34;;;2.92;88.90
65756;BME280;52489;47.502;18.940;2023-02-04T02:13:21;97765.97;;;2.91;89.01
65756;BME280;52489;47.502;18.940;2023-02-04T02:14:23;97759.00;;;2.97;88.79
65756;BME280;52489;47.502;18.940;2023-02-04T02:15:26;97762.34;;;2.92;89.00
65756;BME280;52489;47.502;18.940;2023-02-04T02:16:29;97762.53;;;2.81;89.80
65756;BME280;52489;47.502;18.940;2023-02-04T02:17:33;97764.12;;;2.82;89.96
65756;BME280;52489;47.502;18.940;2023-02-04T02:18:36;97762.34;;;2.87;89.26
65756;BME280;52489;47.502;18.940;2023-02-04T02:19:40;97753.31;;;2.90;89.15
65756;BME280;52489;47.502;18.940;2023-02-04T02:20:44;97755.88;;;2.95;88.99
65756;BME280;52489;47.502;18.940;2023-02-04T02:21:53;97750.47;;;3.02;88.66
65756;BME280;52489;47.502;18.940;2023-02-04T02:24:34;97748.41;;;2.93;89.26
65756;BME280;52489;47.502;18.940;2023-02-04T02:25:37;97769.91;;;2.99;89.19
65756;BME280;52489;47.502;18.940;2023-02-04T02:26:40;97754.38;;;2.99;89.24
65756;BME280;52489;47.502;18.940;2023-02-04T02:27:43;97760.28;;;2.94;89.29
65756;BME280;52489;47.502;18.940;2023-02-04T02:28:46;97758.53;;;3.05;88.79
65756;BME280;52489;47.502;18.940;2023-02-04T02:29:50;97760.59;;;3.03;88.50
65756;BME280;52489;47.502;18.940;2023-02-04T02:30:53;97764.22;;;3.02;88.90
65756;BME280;52489;47.502;18.940;2023-02-04T02:31:56;97763.13;;;2.88;89.81
65756;BME280;52489;47.502;18.940;2023-02-04T02:33:00;97768.56;;;2.91;89.45
65756;BME280;52489;47.502;18.940;2023-02-04T02:34:03;97758.47;;;2.95;89.57
65756;BME280;52489;47.502;18.940;2023-02-04T02:35:06;97775.34;;;3.03;88.67
65756;BME280;52489;47.502;18.940;2023-02-04T02:36:10;97776.09;;;2.98;88.76
65756;BME280;52489;47.502;18.940;2023-02-04T02:37:13;97763.69;;;3.00;88.92
65756;BME280;52489;47.502;18.940;2023-02-04T02:38:17;97781.78;;;3.00;88.88
65756;BME280;52489;47.502;18.940;2023-02-04T02:39:21;97754.59;;;2.97;89.24
65756;BME280;52489;47.502;18.940;2023-02-04T02:40:24;97771.97;;;3.02;89.05
65756;BME280;52489;47.502;18.940;2023-02-04T02:41:27;97765.72;;;2.98;88.94
65756;BME280;52489;47.502;18.940;2023-02-04T02:42:30;97759.31;;;3.06;88.85
65756;BME280;52489;47.502;18.940;2023-02-04T02:43:34;97765.03;;;3.08;88.88
65756;BME280;52489;47.502;18.940;2023-02-04T02:44:37;97771.72;;;3.04;88.66
65756;BME280;52489;47.502;18.940;2023-02-04T02:45:40;97761.84;;;2.95;89.21
65756;BME280;52489;47.502;18.940;2023-02-04T02:46:43;97768.84;;;3.00;89.54
65756;BME280;52489;47.502;18.940;2023-02-04T02:47:47;97769.88;;;2.94;89.61
65756;BME280;52489;47.502;18.940;2023-02-04T02:48:49;97773.75;;;2.96;89.56
65756;BME280;52489;47.502;18.940;2023-02-04T02:49:53;97776.84;;;2.93;89.49
65756;BME280;52489;47.502;18.940;2023-02-04T02:50:56;97773.50;;;2.93;89.75
65756;BME280;52489;47.502;18.940;2023-02-04T02:52:00;97773.50;;;2.93;89.82
65756;BME280;52489;47.502;18.940;2023-02-04T02:53:05;97770.63;;;2.94;89.89
65756;BME280;52489;47.502;18.940;2023-02-04T02:54:23;97764.22;;;3.02;89.11
65756;BME280;52489;47.502;18.940;2023-02-04T02:55:28;97780.25;;;3.04;88.78
65756;BME280;52489;47.502;18.940;2023-02-04T02:56:31;97765.53;;;3.05;88.62
65756;BME280;52489;47.502;18.940;2023-02-04T02:57:34;97763.94;;;3.04;89.27
65756;BME280;52489;47.502;18.940;2023-02-04T02:58:37;97770.69;;;3.10;89.20
65756;BME280;52489;47.502;18.940;2023-02-04T02:59:40;97772.78;;;3.13;88.89
65756;BME280;52489;47.502;18.940;2023-02-04T03:00:43;97759.03;;;3.07;88.78
65756;BME280;52489;47.502;18.940;2023-02-04T03:01:48;97759.28;;;3.01;89.26
65756;BME280;52489;47.502;18.940;2023-02-04T03:03:58;97770.94;;;3.03;89.58
65756;BME280;52489;47.502;18.940;2023-02-04T03:05:01;97765.97;;;2.91;89.79
65756;BME280;52489;47.502;18.940;2023-02-04T03:06:10;97773.72;;;2.91;89.95
65756;BME280;52489;47.502;18.940;2023-02-04T03:07:16;97773.72;;;2.91;90.03
65756;BME280;52489;47.502;18.940;2023-02-04T03:08:23;97769.13;;;3.04;89.49
65756;BME280;52489;47.502;18.940;2023-02-04T03:09:26;97773.19;;;2.89;90.26
65756;BME280;52489;47.502;18.940;2023-02-04T03:10:29;97777.66;;;2.99;90.15
65756;BME280;52489;47.502;18.940;2023-02-04T03:11:33;97782.84;;;2.99;90.22
65756;BME280;52489;47.502;18.940;2023-02-04T03:12:36;97771.91;;;2.92;90.77
65756;BME280;52489;47.502;18.940;2023-02-04T03:13:39;97765.69;;;2.88;90.55
65756;BME280;52489;47.502;18.940;2023-02-04T03:14:42;97764.66;;;2.89;90.74
65756;BME280;52489;47.502;18.940;2023-02-04T03:15:46;97762.16;;;3.09;89.88
65756;BME280;52489;47.502;18.940;2023-02-04T03:16:51;97765.50;;;3.00;90.04
65756;BME280;52489;47.502;18.940;2023-02-04T03:17:55;97764.75;;;3.09;89.76
65756;BME280;52489;47.502;18.940;2023-02-04T03:19:01;97766.31;;;3.10;89.92
65756;BME280;52489;47.502;18.940;2023-02-04T03:20:05;97758.81;;;3.09;89.11
65756;BME280;52489;47.502;18.940;2023-02-04T03:21:09;97761.38;;;3.04;89.59
65756;BME280;52489;47.502;18.940;2023-02-04T03:22:12;97760.34;;;3.05;89.33
65756;BME280;52489;47.502;18.940;2023-02-04T03:23:15;97753.88;;;3.02;89.46
65756;BME280;52489;47.502;18.940;2023-02-04T03:24:17;97766.28;;;3.00;89.78
65756;BME280;52489;47.502;18.940;2023-02-04T03:25:20;97751.56;;;3.06;90.09
65756;BME280;52489;47.502;18.940;2023-02-04T03:26:26;97754.63;;;3.03;89.92
65756;BME280;52489;47.502;18.940;2023-02-04T03:27:29;97746.06;;;2.97;90.25
65756;BME280;52489;47.502;18.940;2023-02-04T03:28:33;97766.47;;;2.88;90.44
65756;BME280;52489;47.502;18.940;2023-02-04T03:29:42;97753.06;;;3.02;89.77
65756;BME280;52489;47.502;18.940;2023-02-04T03:30:45;97757.75;;;3.10;89.20
65756;BME280;52489;47.502;18.940;2023-02-04T03:31:55;97736.81;;;3.11;89.08
65756;BME280;52489;47.502;18.940;2023-02-04T03:33:01;97753.06;;;2.96;89.78
65756;BME280;52489;47.502;18.940;2023-02-04T03:34:04;97740.66;;;3.04;89.51
65756;BME280;52489;47.502;18.940;2023-02-04T03:35:07;97740.94;;;3.07;89.29
65756;BME280;52489;47.502;18.940;2023-02-04T03:36:10;97730.84;;;3.06;89.25
65756;BME280;52489;47.502;18.940;2023-02-04T03:37:13;97741.16;;;3.01;89.96
65756;BME280;52489;47.502;18.940;2023-02-04T03:38:17;97732.59;;;2.95;90.28
65756;BME280;52489;47.502;18.940;2023-02-04T03:39:21;97725.62;;;2.95;90.57
65756;BME280;52489;47.502;18.940;2023-02-04T03:40:24;97728.00;;;3.07;90.42
65756;BME280;52489;47.502;18.940;2023-02-04T03:41:28;97732.91;;;3.04;90.09
65756;BME280;52489;47.502;18.940;2023-02-04T03:42:31;97729.31;;;3.05;90.20
65756;BME280;52489;47.502;18.940;2023-02-04T03:43:33;97732.38;;;3.02;90.75
65756;BME280;52489;47.502;18.940;2023-02-04T03:44:36;97732.09;;;2.98;91.06
65756;BME280;52489;47.502;18.940;2023-02-04T03:45:39;97716.03;;;2.91;91.51
65756;BME280;52489;47.502;18.940;2023-02-04T03:46:47;97723.28;;;2.94;91.67
65756;BME280;52489;47.502;18.940;2023-02-04T03:47:50;97723.28;;;2.94;91.68
65756;BME280;52489;47.502;18.940;2023-02-04T03:48:52;97724.34;;;2.98;92.12
65756;BME280;52489;47.502;18.940;2023-02-04T03:49:57;97722.22;;;2.85;92.90
65756;BME280;52489;47.502;18.940;2023-02-04T03:51:00;97699.69;;;2.80;93.14
65756;BME280;52489;47.502;18.940;2023-02-04T03:52:03;97714.97;;;2.87;93.24
65756;BME280;52489;47.502;18.940;2023-02-04T03:53:06;97725.09;;;2.99;92.50
65756;BME280;52489;47.502;18.940;2023-02-04T03:54:09;97714.75;;;2.93;92.59
65756;BME280;52489;47.502;18.940;2023-02-04T03:55:11;97726.31;;;2.81;93.52
65756;BME280;52489;47.502;18.940;2023-02-04T03:56:14;97726.62;;;2.84;93.47
65756;BME280;52489;47.502;18.940;2023-02-04T03:57:17;97710.31;;;2.84;93.55
65756;BME280;52489;47.502;18.940;2023-02-04T03:58:21;97705.66;;;2.86;93.44
65756;BME280;52489;47.502;18.940;2023-02-04T03:59:24;97718.34;;;2.87;93.46
65756;BME280;52489;47.502;18.940;2023-02-04T04:00:27;97712.16;;;2.99;92.97
65756;BME280;52489;47.502;18.940;2023-02-04T04:01:30;97714.19;;;2.81;93.73
65756;BME280;52489;47.502;18.940;2023-02-04T04:02:33;97716.00;;;2.86;93.88
65756;BME280;52489;47.502;18.940;2023-02-04T04:03:36;97708.28;;;2.91;93.16
65756;BME280;52489;47.502;18.940;2023-02-04T04:04:39;97706.69;;;2.80;93.90
65756;BME280;52489;47.502;18.940;2023-02-04T04:05:41;97709.75;;;2.77;94.33
65756;BME280;52489;47.502;18.940;2023-02-04T04:06:44;97709.72;;;2.71;94.80
65756;BME280;52489;47.502;18.940;2023-02-04T04:07:47;97709.03;;;2.81;94.78
65756;BME280;52489;47.502;18.940;2023-02-04T04:08:50;97715.78;;;2.87;94.10
65756;BME280;52489;47.502;18.940;2023-02-04T04:09:53;97708.22;;;2.81;94.64
65756;BME280;52489;47.502;18.940;2023-02-04T04:10:56;97709.00;;;2.76;94.90
65756;BME280;52489;47.502;18.940;2023-02-04T04:12:02;97700.94;;;2.67;95.42
65756;BME280;52489;47.502;18.940;2023-02-04T04:13:05;97707.91;;;2.72;95.54
65756;BME280;52489;47.502;18.940;2023-02-04T04:14:08;97696.28;;;2.69;95.62
65756;BME280;52489;47.502;18.940;2023-02-04T04:15:11;97703.00;;;2.70;95.47
65756;BME280;52489;47.502;18.940;2023-02-04T04:16:14;97708.47;;;2.74;95.60
65756;BME280;52489;47.502;18.940;2023-02-04T04:17:17;97695.78;;;2.72;95.56
65756;BME280;52489;47.502;18.940;2023-02-04T04:18:20;97706.63;;;2.74;95.49
65756;BME280;52489;47.502;18.940;2023-02-04T04:19:23;97709.78;;;2.82;94.14
65756;BME280;52489;47.502;18.940;2023-02-04T04:20:26;97704.91;;;2.90;93.59
65756;BME280;52489;47.502;18.940;2023-02-04T04:21:30;97694.53;;;2.85;94.09
65756;BME280;52489;47.502;18.940;2023-02-04T04:22:33;97702.00;;;2.77;93.99
65756;BME280;52489;47.502;18.940;2023-02-04T04:23:36;97704.34;;;2.78;94.24
65756;BME280;52489;47.502;18.940;2023-02-04T04:24:39;97695.28;;;2.76;94.72
65756;BME280;52489;47.502;18.940;2023-02-04T04:25:43;97712.91;;;2.89;94.93
65756;BME280;52489;47.502;18.940;2023-02-04T04:26:45;97692.44;;;2.77;95.13
65756;BME280;52489;47.502;18.940;2023-02-04T04:27:48;97705.13;;;2.79;93.98
65756;BME280;52489;47.502;18.940;2023-02-04T04:28:51;97700.75;;;2.84;93.67
65756;BME280;52489;47.502;18.940;2023-02-04T04:29:54;97696.66;;;2.93;92.69
65756;BME280;52489;47.502;18.940;2023-02-04T04:30:57;97696.41;;;3.00;91.95
65756;BME280;52489;47.502;18.940;2023-02-04T04:32:00;97688.12;;;3.03;90.98
65756;BME280;52489;47.502;18.940;2023-02-04T04:33:03;97684.25;;;3.06;91.01
65756;BME280;52489;47.502;18.940;2023-02-04T04:34:05;97685.28;;;3.00;91.43
65756;BME280;52489;47.502;18.940;2023-02-04T04:35:08;97681.91;;;3.04;91.19
65756;BME280;52489;47.502;18.940;2023-02-04T04:36:11;97685.56;;;3.13;90.71
65756;BME280;52489;47.502;18.940;2023-02-04T04:37:14;97682.50;;;3.22;89.70
65756;BME280;52489;47.502;18.940;2023-02-04T04:38:17;97675.75;;;3.21;89.03
65756;BME280;52489;47.502;18.940;2023-02-04T04:39:20;97691.78;;;3.12;89.21
65756;BME280;52489;47.502;18.940;2023-02-04T04:40:23;97690.47;;;3.10;89.07
65756;BME280;52489;47.502;18.940;2023-02-04T04:41:26;97689.47;;;3.16;88.54
65756;BME280;52489;47.502;18.940;2023-02-04T04:42:29;97684.03;;;3.17;88.62
65756;BME280;52489;47.502;18.940;2023-02-04T04:43:32;97671.88;;;3.18;89.06
65756;BME280;52489;47.502;18.940;2023-02-04T04:44:34;97676.78;;;3.14;89.18
65756;BME280;52489;47.502;18.940;2023-02-04T04:45:37;97668.75;;;3.16;89.12
65756;BME280;52489;47.502;18.940;2023-02-04T04:46:40;97664.09;;;3.13;88.90
65756;BME280;52489;47.502;18.940;2023-02-04T04:47:43;97679.88;;;3.11;88.96
65756;BME280;52489;47.502;18.940;2023-02-04T04:48:46;97679.62;;;3.13;89.26
65756;BME280;52489;47.502;18.940;2023-02-04T04:49:49;97668.50;;;3.12;89.37
65756;BME280;52489;47.502;18.940;2023-02-04T04:50:52;97672.59;;;3.03;89.15
65756;BME280;52489;47.502;18.940;2023-02-04T04:51:55;97669.50;;;3.06;88.67
65756;BME280;52489;47.502;18.940;2023-02-04T04:52:58;97668.47;;;3.07;89.00
65756;BME280;52489;47.502;18.940;2023-02-04T04:54:01;97664.34;;;3.16;88.37
65756;BME280;52489;47.502;18.940;2023-02-04T04:55:04;97664.09;;;3.18;87.60
65756;BME280;52489;47.502;18.940;2023-02-04T04:56:07;97677.06;;;3.23;87.65
65756;BME280;52489;47.502;18.940;2023-02-04T04:57:10;97663.09;;;3.24;87.16
65756;BME280;52489;47.502;18.940;2023-02-04T04:58:13;97665.94;;;3.33;86.29
65756;BME280;52489;47.502;18.940;2023-02-04T04:59:16;97661.53;;;3.28;86.70
65756;BME280;52489;47.502;18.940;2023-02-04T05:00:19;97659.44;;;3.25;87.30
65756;BME280;52489;47.502;18.940;2023-02-04T05:01:23;97660.19;;;3.10;87.77
65756;BME280;52489;47.502;18.940;2023-02-04T05:02:25;97643.16;;;3.14;87.54
65756;BME280;52489;47.502;18.940;2023-02-04T05:03:29;97648.34;;;3.19;87.42
65756;BME280;52489;47.502;18.940;2023-02-04T05:04:32;97640.28;;;3.16;87.49
65756;BME280;52489;47.502;18.940;2023-02-04T05:05:34;97652.97;;;3.12;87.53
65756;BME280;52489;47.502;18.940;2023-02-04T05:06:41;97643.41;;;3.08;87.59
65756;BME280;52489;47.502;18.940;2023-02-04T05:07:44;97638.47;;;3.16;87.66
65756;BME280;52489;47.502;18.940;2023-02-04T05:08:47;97650.41;;;3.17;87.38
65756;BME280;52489;47.502;18.940;2023-02-04T05:09:50;97644.16;;;3.13;87.21
65756;BME280;52489;47.502;18.940;2023-02-04T05:10:53;97651.41;;;3.16;86.97
65756;BME280;52489;47.502;18.940;2023-02-04T05:11:56;97641.62;;;3.29;86.53
65756;BME280;52489;47.502;18.940;2023-02-04T05:12:59;97645.22;;;3.28;86.66
65756;BME280;52489;47.502;18.940;2023-02-04T05:14:02;97653.75;;;3.28;86.69
65756;BME280;52489;47.502;18.940;2023-02-04T05:15:05;97637.97;;;3.25;86.59
65756;BME280;52489;47.502;18.940;2023-02-04T05:16:08;97641.06;;;3.16;86.89
65756;BME280;52489;47.502;18.940;2023-02-04T05:17:13;97645.19;;;3.12;87.09
65756;BME280;52489;47.502;18.940;2023-02-04T05:18:16;97649.88;;;3.15;86.84
65756;BME280;52489;47.502;18.940;2023-02-04T05:19:19;97654.25;;;3.15;87.27
65756;BME280;52489;47.502;18.940;2023-02-04T05:20:21;97645.47;;;3.16;86.77
65756;BME280;52489;47.502;18.940;2023-02-04T05:21:24;97649.12;;;3.30;86.19
65756;BME280;52489;47.502;18.940;2023-02-04T05:22:27;97665.16;;;3.27;86.21
65756;BME280;52489;47.502;18.940;2023-02-04T05:23:30;97638.25;;;3.23;86.47
65756;BME280;52489;47.502;18.940;2023-02-04T05:24:33;97651.97;;;3.24;86.57
65756;BME280;52489;47.502;18.940;2023-02-04T05:25:36;97644.22;;;3.29;86.74
65756;BME280;52489;47.502;18.940;2023-02-04T05:26:39;97643.16;;;3.30;86.33
65756;BME280;52489;47.502;18.940;2023-02-04T05:27:42;97648.31;;;3.25;86.64
65756;BME280;52489;47.502;18.940;2023-02-04T05:28:45;97640.81;;;3.28;86.40
65756;BME280;52489;47.502;18.940;2023-02-04T05:29:48;97642.12;;;3.31;85.67
65756;BME280;52489;47.502;18.940;2023-02-04T05:30:51;97638.50;;;3.27;86.30
65756;BME280;52489;47.502;18.940;2023-02-04T05:31:54;97651.69;;;3.25;86.30
65756;BME280;52489;47.502;18.940;2023-02-04T05:32:57;97643.66;;;3.16;86.73
65756;BME280;52489;47.502;18.940;2023-02-04T05:34:00;97651.91;;;3.13;87.32
65756;BME280;52489;47.502;18.940;2023-02-04T05:35:04;97669.28;;;3.08;87.84
65756;BME280;52489;47.502;18.940;2023-02-04T05:36:07;97649.88;;;3.21;87.84
65756;BME280;52489;47.502;18.940;2023-02-04T05:37:09;97649.62;;;3.17;88.33
65756;BME280;52489;47.502;18.940;2023-02-04T05:38:12;97661.25;;;3.14;89.15
65756;BME280;52489;47.502;18.940;2023-02-04T05:39:15;97664.59;;;3.10;90.26